createdAt,value
2017-12-08T00:01:44.069Z,998.04
2017-12-08T00:11:44.095Z,998.08
2017-12-08T00:21:44.033Z,998.01
2017-12-08T00:31:44.097Z,997.94
2017-12-08T00:41:44.111Z,997.93
2017-12-08T00:51:44.069Z,997.75
2017-12-08T01:01:44.128Z,997.74
2017-12-08T01:11:44.047Z,997.88
2017-12-08T01:21:44.155Z,997.94
2017-12-08T01:31:44.120Z,998.07
2017-12-08T01:41:44.168Z,998.19
2017-12-08T01:51:44.131Z,998.21
2017-12-08T02:01:44.201Z,998.24
2017-12-08T02:11:44.161Z,998.29
2017-12-08T02:21:44.127Z,998.22
2017-12-08T02:31:44.184Z,998.3
2017-12-08T02:41:44.152Z,998.38
2017-12-08T02:51:44.204Z,998.28
2017-12-08T03:01:44.165Z,998.32
2017-12-08T03:11:44.237Z,998.24
2017-12-08T03:21:44.191Z,998.28
2017-12-08T03:31:44.256Z,998.23
2017-12-08T03:41:44.210Z,998.27
2017-12-08T03:51:44.284Z,998.32
2017-12-08T04:01:44.236Z,998.19
2017-12-08T04:11:44.189Z,998.14
2017-12-08T04:21:44.286Z,998.09
2017-12-08T04:31:44.222Z,998.17
2017-12-08T04:41:44.306Z,998.15
2017-12-08T04:51:44.246Z,998.12
2017-12-08T05:01:44.307Z,998.14
2017-12-08T05:11:44.267Z,998.24
2017-12-08T05:21:44.342Z,998.34
2017-12-08T05:31:44.295Z,998.32
2017-12-08T05:41:44.353Z,998.21
2017-12-08T05:51:44.330Z,998.34
2017-12-08T06:01:44.277Z,998.31
2017-12-08T06:11:44.338Z,998.23
2017-12-08T06:21:44.298Z,998.23
2017-12-08T06:31:44.366Z,998.31
2017-12-08T06:41:44.356Z,998.25
2017-12-08T06:51:44.399Z,998.29
2017-12-08T07:01:44.343Z,998.37
2017-12-08T07:11:44.404Z,998.41
2017-12-08T07:21:44.401Z,998.54
2017-12-08T07:31:44.489Z,998.5
2017-12-08T07:41:44.423Z,998.57
2017-12-08T07:51:44.359Z,998.65
2017-12-08T08:01:44.446Z,998.57
2017-12-08T08:11:44.381Z,998.55
2017-12-08T08:21:44.459Z,998.55
2017-12-08T08:31:44.436Z,998.83
2017-12-08T08:41:44.472Z,998.75
2017-12-08T08:51:44.417Z,998.75
2017-12-08T09:01:44.515Z,998.78
2017-12-08T09:11:44.458Z,998.73
2017-12-08T09:21:44.512Z,998.65
2017-12-08T09:31:44.477Z,998.73
2017-12-08T09:41:44.526Z,998.62
2017-12-08T09:51:44.506Z,998.69
2017-12-08T10:01:44.567Z,998.63
2017-12-08T10:11:44.503Z,998.43
2017-12-08T10:21:44.465Z,998.4
2017-12-08T10:31:44.525Z,998.38
2017-12-08T10:41:44.500Z,998.27
2017-12-08T10:51:44.576Z,998.21
2017-12-08T11:01:44.599Z,998.19
2017-12-08T11:11:44.580Z,998.08
2017-12-08T11:23:10.678Z,998.07
2017-12-08T11:33:10.682Z,998.13
2017-12-08T11:43:10.741Z,998.16
2017-12-08T11:53:10.731Z,998.3
2017-12-08T12:03:10.773Z,998.34
2017-12-08T12:13:10.695Z,998.34
2017-12-08T12:23:10.807Z,998.52
2017-12-08T12:33:10.702Z,998.78
2017-12-08T12:43:10.909Z,998.89
2017-12-08T12:53:10.789Z,998.99
2017-12-08T13:03:10.717Z,999.15
2017-12-08T13:13:10.805Z,999.15
2017-12-08T13:23:10.775Z,999.27
2017-12-08T13:33:10.828Z,999.35
2017-12-08T13:43:10.823Z,999.37
2017-12-08T13:53:10.875Z,999.38
2017-12-08T14:03:10.802Z,999.4
2017-12-08T14:13:10.874Z,999.44
2017-12-08T14:23:10.887Z,999.53
2017-12-08T14:33:10.804Z,999.61
2017-12-08T14:43:10.862Z,999.72
2017-12-08T14:53:10.802Z,999.85
2017-12-08T15:03:10.833Z,1000.15
2017-12-08T15:13:13.417Z,1000.28
2017-12-08T15:23:10.885Z,1000.26
2017-12-08T15:33:11.032Z,1000.12
2017-12-08T15:43:10.900Z,1000.13
2017-12-08T15:53:10.898Z,1000.2
2017-12-08T16:03:10.932Z,1000.18
2017-12-08T16:13:10.973Z,1000.17
2017-12-08T16:23:10.925Z,1000.2
2017-12-08T16:33:10.910Z,1000.27
2017-12-08T16:43:11.012Z,1000.37
2017-12-08T16:53:10.917Z,1000.34
2017-12-08T17:03:11.025Z,1000.28
2017-12-08T17:13:10.962Z,1000.27
2017-12-08T17:23:10.940Z,1000.22
2017-12-08T17:33:10.981Z,1000.08
2017-12-08T17:43:11.025Z,1000.03
2017-12-08T17:53:13.585Z,1000.08
2017-12-08T18:03:10.942Z,999.92
2017-12-08T18:13:10.961Z,999.94
2017-12-08T18:23:11.064Z,999.91
2017-12-08T18:33:11.054Z,999.93
2017-12-08T18:43:11.116Z,999.9
2017-12-08T18:53:16.505Z,999.92
2017-12-08T19:03:11.150Z,999.82
2017-12-08T19:13:10.994Z,999.77
2017-12-08T19:23:11.031Z,999.76
2017-12-08T19:33:11.287Z,999.79
2017-12-08T19:43:11.191Z,999.53
2017-12-08T19:53:11.099Z,999.71
2017-12-08T20:03:22.722Z,999.64
2017-12-08T20:13:13.085Z,999.69
2017-12-08T20:23:11.085Z,999.67
2017-12-08T20:33:11.167Z,999.94
2017-12-08T20:43:11.258Z,1000.06
2017-12-08T20:53:11.174Z,1000.24
2017-12-08T21:03:11.144Z,1000.25
2017-12-08T21:13:11.091Z,1000.39
2017-12-08T21:23:11.177Z,1000.39
2017-12-08T21:33:11.646Z,1000.42
2017-12-08T21:43:11.200Z,1000.49
2017-12-08T21:53:11.411Z,1000.51
2017-12-08T22:03:11.224Z,1000.52
2017-12-08T22:13:11.164Z,1000.72
2017-12-08T22:23:11.244Z,1000.9
2017-12-08T22:33:11.213Z,1000.89
2017-12-08T22:43:11.225Z,1000.98
2017-12-08T22:53:11.265Z,1001.08
2017-12-08T23:03:11.250Z,1001.22
2017-12-08T23:13:11.201Z,1001.41
2017-12-08T23:23:11.275Z,1001.43
2017-12-08T23:33:11.220Z,1001.41
2017-12-08T23:43:11.322Z,1001.37
2017-12-08T23:53:11.245Z,1001.26
